KHSB

Details ICAO KHSB
Name HARRISBURG RALEIGH
Region United States
Timezone America/Chicago (UTC-5.0)
Plans Departing 0
Arriving 0
Stats Elevation 396 ft / 121 m (AMSL)
Location 37.810922° -88.549644°
Runways 2
Magnetic Variation 2.712° W
Sunrise 2018-05-22 10:40:26 UTC / 2018-05-22 05:40:26 Local
Sunset 2018-05-23 01:04:11 UTC / 2018-05-22 20:04:11 Local
Advertisement - Login to hide

Runways

ID Width Length Bearing (true) Bearing (mag) Surface Threshold Offset Overrun Length
06 75 ft / 23 m 5,024 ft / 1,531 m 63.09° 65.80° Asphalt 0 ft / 0 m 0 ft / 0 m
14 75 ft / 23 m 2,766 ft / 843 m 141.02° 143.73° Asphalt 0 ft / 0 m 0 ft / 0 m
24 75 ft / 23 m 5,024 ft / 1,531 m 243.10° 245.81° Asphalt 0 ft / 0 m 0 ft / 0 m
32 75 ft / 23 m 2,766 ft / 843 m 321.03° 323.74° Asphalt 0 ft / 0 m 0 ft / 0 m

Map

Weather


0- 5 10 15 20 25 30 35+ Temperature / ° C

Clouds and Precipitation
Forecast for 2018-05-23 00:00 UTC. Updated 3 hours ago

Ground ~20,000 ft ~40,000 ft Winds

METAR

KHSB 230155Z AUTO 00000KT 10SM CLR 23/20 A3001 RMK AO2 T02300195

TAF

Not found

Frequencies

Recorded 135.92 MHz AWOS 3
Unicom 122.80 MHz CTAF/UNICOM
Warning: Do not use this data for real-world aviation or navigation. No guarantee of current accuracy is given.